»·PEaware :: DAL1258 KSAN-KLAS

DAL1258 :: KSAN-KLAS

FLIGHT INFORMATION

Flight Status: Arrived
Operator:
Delta Air Lines
More flights by this operator :: More flights under this callsign
Pilot: Ben F. (2808)
Aircraft: BOEING 727-200
(B722)
More flights by this aircraft type
Origin: KSAN San Diego Intl-Lindbergh
United States
Destination: KLAS McCarran Intl
United States
More flights between these airports :: More routes between these airports
Route: PEBLE6 SXC LAX DAG CLARR3
File this flight plan on PilotEdge
Remarks:
Altitude:
(Current/Filed)
29,000ft
Speed:
(Current/Filed)
498kts
Departed: 20-Jul-19 08:47 AM
Arrived: 20-Jul-19 09:44 AM
Distance/Time
Traveled:
225nm/0:57
Distance/Time
To Go:
Arrived

Flight Plot

Page will automatically refresh every two minutes.

Flight plan parsing failed; only flown route is shown


Map Options




Map Legend


Flown Route
Filed Route
Departure Airport
Arrival Airport
Navaid (VOR, NDB)
Fix

Horizontal Profiles

Position Reports

Time Latitude Longitude Heading Altitude Ground
Speed
20-Jul-19 08:27 32.734140 -117.201795 178 29ft 0kts
20-Jul-19 08:29 32.734140 -117.201795 178 29ft 0kts
20-Jul-19 08:30 32.734140 -117.201795 178 29ft 0kts
20-Jul-19 08:31 32.734140 -117.201795 178 29ft 0kts
20-Jul-19 08:32 32.734140 -117.201795 178 29ft 0kts
20-Jul-19 08:33 32.734140 -117.201795 178 29ft 0kts
20-Jul-19 08:34 32.734140 -117.201795 178 29ft 0kts
20-Jul-19 08:35 32.734140 -117.201795 178 29ft 0kts
20-Jul-19 08:36 32.734140 -117.201795 178 29ft 0kts
20-Jul-19 08:37 32.734629 -117.201815 163 29ft 2kts
20-Jul-19 08:38 32.734807 -117.202422 53 29ft 2kts
20-Jul-19 08:39 32.734655 -117.202567 28 29ft 0kts
20-Jul-19 08:40 32.734655 -117.202567 28 29ft 0kts
20-Jul-19 08:41 32.734705 -117.202535 28 29ft 2kts
20-Jul-19 08:42 32.734301 -117.196984 105 29ft 28kts
20-Jul-19 08:43 32.732061 -117.187827 105 29ft 28kts
20-Jul-19 08:44 32.729893 -117.178819 106 29ft 25kts
20-Jul-19 08:45 32.729519 -117.176706 74 29ft 0kts
20-Jul-19 08:46 32.730062 -117.175516 315 29ft 3kts
20-Jul-19 08:47 32.733962 -117.191297 286 32ft 154kts
20-Jul-19 08:48 32.752872 -117.239949 304 1872ft 169kts
20-Jul-19 08:49 32.785994 -117.298825 304 3271ft 262kts
20-Jul-19 08:49 32.821421 -117.359842 304 6395ft 270kts
20-Jul-19 08:50 32.867385 -117.435225 304 9740ft 282kts
20-Jul-19 08:52 32.943755 -117.510859 324 12232ft 335kts
20-Jul-19 08:52 33.004715 -117.573030 309 14482ft 345kts
20-Jul-19 08:53 33.067461 -117.662039 307 17180ft 351kts
20-Jul-19 08:54 33.129474 -117.755538 305 19395ft 362kts
20-Jul-19 08:55 33.188014 -117.859269 291 21294ft 373kts
20-Jul-19 08:56 33.229246 -117.978298 290 23032ft 385kts
20-Jul-19 08:57 33.270433 -118.102082 290 24542ft 398kts
20-Jul-19 08:58 33.312551 -118.229370 290 25953ft 408kts
20-Jul-19 08:59 33.356388 -118.359337 298 27181ft 418kts
20-Jul-19 09:00 33.460028 -118.422354 354 28269ft 435kts
20-Jul-19 09:01 33.584926 -118.427454 358 29035ft 451kts
20-Jul-19 09:02 33.716284 -118.430368 358 29026ft 485kts
20-Jul-19 09:03 33.857204 -118.433216 0 29017ft 504kts
20-Jul-19 09:04 33.980130 -118.355694 54 29026ft 504kts
20-Jul-19 09:05 34.060533 -118.213678 56 29018ft 505kts
20-Jul-19 09:06 34.139296 -118.073564 56 29027ft 502kts
20-Jul-19 09:07 34.217657 -117.932199 56 29044ft 499kts
20-Jul-19 09:08 34.296178 -117.790401 56 29045ft 497kts
20-Jul-19 09:09 34.374832 -117.649455 56 29045ft 497kts
20-Jul-19 09:10 34.453574 -117.507881 56 29047ft 500kts
20-Jul-19 09:11 34.533037 -117.364495 55 29047ft 503kts
20-Jul-19 09:12 34.610698 -117.223848 56 29045ft 505kts
20-Jul-19 09:13 34.690586 -117.078581 56 29049ft 508kts
20-Jul-19 09:14 34.770423 -116.932809 56 29040ft 508kts
20-Jul-19 09:15 34.849818 -116.787246 56 28992ft 507kts
20-Jul-19 09:16 34.928920 -116.642217 53 28960ft 505kts
20-Jul-19 09:17 35.018376 -116.510292 45 27355ft 488kts
20-Jul-19 09:18 35.110279 -116.395069 44 24872ft 488kts
20-Jul-19 09:19 35.202289 -116.280161 44 23960ft 469kts
20-Jul-19 09:20 35.293212 -116.166228 45 22954ft 461kts
20-Jul-19 09:21 35.383092 -116.053212 45 20594ft 442kts
20-Jul-19 09:22 35.464977 -115.949930 45 18097ft 384kts
20-Jul-19 09:23 35.536915 -115.858899 45 15540ft 365kts
20-Jul-19 09:24 35.606885 -115.770158 46 13051ft 327kts
20-Jul-19 09:25 35.671625 -115.687838 46 13010ft 332kts
20-Jul-19 09:26 35.736540 -115.604716 43 13007ft 328kts
20-Jul-19 09:27 35.822057 -115.578653 0 13010ft 316kts
20-Jul-19 09:28 35.910582 -115.576730 358 13000ft 312kts
20-Jul-19 09:29 35.998070 -115.574960 10 12977ft 308kts
20-Jul-19 09:30 36.037655 -115.492443 91 11971ft 305kts
20-Jul-19 09:31 36.033711 -115.394686 95 11030ft 282kts
20-Jul-19 09:32 36.027488 -115.300617 97 10121ft 270kts
20-Jul-19 09:33 36.021430 -115.214191 97 8595ft 246kts
20-Jul-19 09:34 36.015458 -115.130133 97 8008ft 226kts
20-Jul-19 09:35 36.009378 -115.050093 98 7392ft 247kts
20-Jul-19 09:36 36.001535 -114.962925 94 5899ft 254kts
20-Jul-19 09:37 36.023305 -114.887648 14 5021ft 234kts
20-Jul-19 09:38 36.082916 -114.898050 318 5004ft 201kts
20-Jul-19 09:39 36.079467 -114.962302 248 5022ft 195kts
20-Jul-19 09:40 36.074146 -115.026178 266 3736ft 162kts
20-Jul-19 09:41 36.073591 -115.078969 266 2951ft 148kts
20-Jul-19 09:42 36.073644 -115.130613 266 2157ft 139kts
20-Jul-19 09:43 36.074569 -115.150334 300 2153ft 14kts
20-Jul-19 09:44 36.078563 -115.150804 50 2153ft 17kts
20-Jul-19 09:45 36.078271 -115.143495 95 2153ft 24kts
20-Jul-19 09:46 36.079615 -115.139506 354 2153ft 4kts

Navigation Log

Ident Type
Flight plan parsing failed, navigation log unavailable